createdAt,value
2023-05-24T00:00:03.612Z,65.90
2023-05-24T00:01:04.216Z,65.80
2023-05-24T00:03:06.126Z,68.10
2023-05-24T00:04:06.492Z,67.30
2023-05-24T00:07:04.397Z,67.20
2023-05-24T00:08:03.977Z,66.30
2023-05-24T00:09:06.118Z,66.10
2023-05-24T00:10:06.615Z,65.80
2023-05-24T00:11:06.594Z,66.20
2023-05-24T00:12:06.714Z,66.40
2023-05-24T00:13:04.218Z,66.40
2023-05-24T00:14:06.281Z,66.30
2023-05-24T00:15:06.245Z,67.20
2023-05-24T00:16:06.304Z,66.30
2023-05-24T00:17:06.510Z,66.40
2023-05-24T00:18:06.657Z,66.50
2023-05-24T00:19:04.240Z,66.40
2023-05-24T00:20:07.423Z,66.10
2023-05-24T00:22:03.781Z,66.60
2023-05-24T00:23:04.369Z,66.20
2023-05-24T00:24:06.525Z,66.30
2023-05-24T00:25:06.508Z,67.00
2023-05-24T00:26:06.464Z,66.30
2023-05-24T00:28:03.565Z,66.10
2023-05-24T00:29:06.718Z,66.50
2023-05-24T00:31:03.763Z,66.10
2023-05-24T00:32:04.496Z,66.40
2023-05-24T00:33:06.891Z,66.10
2023-05-24T00:34:04.389Z,66.00
2023-05-24T00:35:04.004Z,65.50
2023-05-24T00:37:04.161Z,65.80
2023-05-24T00:38:06.244Z,65.70
2023-05-24T00:40:04.196Z,66.40
2023-05-24T00:41:08.890Z,65.70
2023-05-24T00:42:04.331Z,65.70
2023-05-24T00:43:03.941Z,65.90
2023-05-24T00:44:03.646Z,66.20
2023-05-24T00:45:09.404Z,66.10
2023-05-24T00:46:03.885Z,66.10
2023-05-24T00:47:03.518Z,65.90
2023-05-24T00:48:04.232Z,65.60
2023-05-24T00:50:06.532Z,65.80
2023-05-24T00:51:11.099Z,65.40
2023-05-24T00:53:06.213Z,65.90
2023-05-24T00:55:06.696Z,66.20
2023-05-24T00:57:03.800Z,66.40
2023-05-24T00:58:04.390Z,66.00
2023-05-24T01:00:03.737Z,66.00
2023-05-24T01:01:04.504Z,66.50
2023-05-24T01:02:04.235Z,66.20
2023-05-24T01:04:06.238Z,66.40
2023-05-24T01:06:04.193Z,66.60
2023-05-24T01:07:08.824Z,66.70
2023-05-24T01:09:03.865Z,67.70
2023-05-24T01:11:06.707Z,67.60
2023-05-24T01:12:09.283Z,66.50
2023-05-24T01:13:06.290Z,67.20
2023-05-24T01:14:06.281Z,66.40
2023-05-24T01:16:04.578Z,67.10
2023-05-24T01:17:06.808Z,66.90
2023-05-24T01:19:03.888Z,66.30
2023-05-24T01:20:04.560Z,66.50
2023-05-24T01:22:03.931Z,68.00
2023-05-24T01:24:04.223Z,66.90
2023-05-24T01:26:04.422Z,67.40
2023-05-24T01:27:04.000Z,66.00
2023-05-24T01:28:06.091Z,67.20
2023-05-24T01:29:06.062Z,67.90
2023-05-24T01:30:06.051Z,67.20
2023-05-24T01:32:06.587Z,66.10
2023-05-24T01:33:04.192Z,65.90
2023-05-24T01:34:03.757Z,65.00
2023-05-24T01:35:09.402Z,64.90
2023-05-24T01:36:06.447Z,65.10
2023-05-24T01:37:04.004Z,64.90
2023-05-24T01:38:03.606Z,65.00
2023-05-24T01:39:04.187Z,64.60
2023-05-24T01:40:06.312Z,64.10
2023-05-24T01:42:09.462Z,64.90
2023-05-24T01:43:03.927Z,64.90
2023-05-24T01:44:03.414Z,64.10
2023-05-24T01:45:03.940Z,63.70
2023-05-24T01:46:03.523Z,63.80
2023-05-24T01:47:06.780Z,64.30
2023-05-24T01:48:07.014Z,64.00
2023-05-24T01:49:06.155Z,64.30
2023-05-24T01:51:04.194Z,63.90
2023-05-24T01:52:09.029Z,62.90
2023-05-24T01:54:04.167Z,62.90
2023-05-24T01:55:11.353Z,62.80
2023-05-24T01:56:03.819Z,62.80
2023-05-24T01:57:04.437Z,64.10
2023-05-24T01:59:03.548Z,63.60
2023-05-24T02:00:06.623Z,63.60
2023-05-24T02:01:04.115Z,63.30
2023-05-24T02:02:06.309Z,63.70
2023-05-24T02:03:06.905Z,63.80
2023-05-24T02:04:08.596Z,63.30
2023-05-24T02:05:04.071Z,63.40
2023-05-24T02:06:03.675Z,63.90
2023-05-24T02:07:04.293Z,63.90
2023-05-24T02:08:08.861Z,63.90
2023-05-24T02:10:04.350Z,63.70
2023-05-24T02:11:06.608Z,63.00
2023-05-24T02:12:04.072Z,62.70
2023-05-24T02:13:06.168Z,61.90
2023-05-24T02:14:06.240Z,63.00
2023-05-24T02:16:04.476Z,62.20
2023-05-24T02:17:04.343Z,62.30
2023-05-24T02:18:04.111Z,62.40
2023-05-24T02:19:08.871Z,62.30
2023-05-24T02:20:04.431Z,62.10
2023-05-24T02:21:06.282Z,63.20
2023-05-24T02:22:06.263Z,62.30
2023-05-24T02:23:06.305Z,62.30
2023-05-24T02:24:03.794Z,62.30
2023-05-24T02:25:04.329Z,63.60
2023-05-24T02:27:06.127Z,62.10
2023-05-24T02:28:03.620Z,62.10
2023-05-24T02:29:06.680Z,62.40
2023-05-24T02:30:06.738Z,62.40
2023-05-24T02:31:11.821Z,62.40
2023-05-24T02:33:04.405Z,63.00
2023-05-24T02:34:06.477Z,63.20
2023-05-24T02:35:06.510Z,63.70
2023-05-24T02:37:03.488Z,63.20
2023-05-24T02:38:06.586Z,63.20
2023-05-24T02:40:03.504Z,63.40
2023-05-24T02:41:04.147Z,63.10
2023-05-24T02:42:03.682Z,63.10
2023-05-24T02:43:04.350Z,63.20
2023-05-24T02:44:06.461Z,62.60
2023-05-24T02:46:06.940Z,61.90
2023-05-24T02:47:06.897Z,62.20
2023-05-24T02:49:03.915Z,62.10
2023-05-24T02:50:03.489Z,62.20
2023-05-24T02:51:04.106Z,62.40
2023-05-24T02:53:04.212Z,62.10
2023-05-24T02:54:06.258Z,62.00
2023-05-24T02:56:06.756Z,62.60
2023-05-24T02:57:06.785Z,62.70
2023-05-24T02:58:06.805Z,62.40
2023-05-24T03:00:06.307Z,62.00
2023-05-24T03:01:03.870Z,61.90
2023-05-24T03:02:06.193Z,62.00
2023-05-24T03:03:06.485Z,61.90
2023-05-24T03:04:06.530Z,61.80
2023-05-24T03:05:04.076Z,61.80
2023-05-24T03:06:06.378Z,62.10
2023-05-24T03:07:06.318Z,62.40
2023-05-24T03:08:06.331Z,62.10
2023-05-24T03:09:06.314Z,62.10
2023-05-24T03:11:04.344Z,61.70
2023-05-24T03:12:03.909Z,62.10
2023-05-24T03:13:08.581Z,62.10
2023-05-24T03:14:09.130Z,62.30
2023-05-24T03:15:03.657Z,62.30
2023-05-24T03:16:03.892Z,62.30
2023-05-24T03:17:03.588Z,62.40
2023-05-24T03:18:04.307Z,62.70
2023-05-24T03:19:03.860Z,62.20
2023-05-24T03:20:07.077Z,61.90
2023-05-24T03:22:06.645Z,62.70
2023-05-24T03:25:04.279Z,62.80
2023-05-24T03:26:03.982Z,61.90
2023-05-24T03:27:08.647Z,63.00
2023-05-24T03:28:04.050Z,62.60
2023-05-24T03:29:06.149Z,62.20
2023-05-24T03:30:06.238Z,62.60
2023-05-24T03:32:04.267Z,62.40
2023-05-24T03:33:09.222Z,62.50
2023-05-24T03:35:04.287Z,62.00
2023-05-24T03:36:06.453Z,62.30
2023-05-24T03:37:06.526Z,62.00
2023-05-24T03:39:04.458Z,60.90
2023-05-24T03:40:04.168Z,62.10
2023-05-24T03:41:06.401Z,62.80
2023-05-24T03:42:03.829Z,62.50
2023-05-24T03:43:05.117Z,62.70
2023-05-24T03:44:03.700Z,61.70
2023-05-24T03:45:06.839Z,62.30
2023-05-24T03:46:09.461Z,61.90
2023-05-24T03:48:03.830Z,61.90
2023-05-24T03:49:05.974Z,62.40
2023-05-24T03:52:03.918Z,62.60
2023-05-24T03:53:06.960Z,62.40
2023-05-24T03:54:09.420Z,62.40
2023-05-24T03:55:03.823Z,62.40
2023-05-24T03:56:04.398Z,62.70
2023-05-24T03:57:06.525Z,62.10
2023-05-24T03:58:07.251Z,63.20
2023-05-24T03:59:06.295Z,61.60
2023-05-24T04:00:03.781Z,61.60
2023-05-24T04:01:04.380Z,62.30
2023-05-24T04:02:06.560Z,62.70
2023-05-24T04:04:04.002Z,63.20
2023-05-24T04:05:03.585Z,63.10
2023-05-24T04:06:04.149Z,62.70
2023-05-24T04:07:03.866Z,62.20
2023-05-24T04:08:04.393Z,62.10
2023-05-24T04:09:06.587Z,62.50
2023-05-24T04:10:06.499Z,61.80
2023-05-24T04:12:07.008Z,62.70
2023-05-24T04:13:06.085Z,63.50
2023-05-24T04:15:04.171Z,62.20
2023-05-24T04:16:06.303Z,63.40
2023-05-24T04:17:06.578Z,63.30
2023-05-24T04:19:04.064Z,63.40
2023-05-24T04:20:06.309Z,62.50
2023-05-24T04:22:04.299Z,62.70
2023-05-24T04:23:06.368Z,62.30
2023-05-24T04:25:04.826Z,62.00
2023-05-24T04:26:06.060Z,62.10
2023-05-24T04:28:06.727Z,62.20
2023-05-24T04:29:06.716Z,62.60
2023-05-24T04:30:04.239Z,62.30
2023-05-24T04:31:03.986Z,62.60
2023-05-24T04:32:03.628Z,62.70
2023-05-24T04:33:04.411Z,63.80
2023-05-24T04:34:06.560Z,61.70
2023-05-24T04:35:06.605Z,61.60
2023-05-24T04:37:03.647Z,62.40
2023-05-24T04:38:06.811Z,62.20
2023-05-24T04:39:06.796Z,61.70
2023-05-24T04:41:03.847Z,61.70
2023-05-24T04:42:07.012Z,61.70
2023-05-24T04:44:06.648Z,62.20
2023-05-24T04:45:06.645Z,62.00
2023-05-24T04:47:04.032Z,62.30
2023-05-24T04:48:03.719Z,62.00
2023-05-24T04:49:04.374Z,62.20
2023-05-24T04:50:03.994Z,61.80
2023-05-24T04:51:03.627Z,61.30
2023-05-24T04:52:04.205Z,61.60
2023-05-24T04:54:04.240Z,61.80
2023-05-24T04:55:06.423Z,61.80
2023-05-24T04:56:06.429Z,62.50
2023-05-24T04:58:04.300Z,61.70
2023-05-24T04:59:06.421Z,60.60
2023-05-24T05:00:06.467Z,60.30
2023-05-24T05:01:06.591Z,60.70
2023-05-24T05:03:04.127Z,60.80
2023-05-24T05:04:03.976Z,61.20
2023-05-24T05:05:03.627Z,61.10
2023-05-24T05:06:04.220Z,61.40
2023-05-24T05:08:06.972Z,61.70
2023-05-24T05:09:06.930Z,61.10
2023-05-24T05:12:03.709Z,61.00
2023-05-24T05:13:06.961Z,61.50
2023-05-24T05:14:04.334Z,61.40
2023-05-24T05:15:06.460Z,61.20
2023-05-24T05:16:06.452Z,61.80
2023-05-24T05:17:03.989Z,61.50
2023-05-24T05:18:03.603Z,61.30
2023-05-24T05:19:04.252Z,61.10
2023-05-24T05:20:03.900Z,60.60
2023-05-24T05:21:03.553Z,60.20
2023-05-24T05:22:04.369Z,60.50
2023-05-24T05:23:06.534Z,60.10
2023-05-24T05:24:09.065Z,60.10
2023-05-24T05:26:06.697Z,60.10
2023-05-24T05:27:06.785Z,59.60
2023-05-24T05:29:03.912Z,59.40
2023-05-24T05:30:03.479Z,59.00
2023-05-24T05:31:06.605Z,59.20
2023-05-24T05:32:06.606Z,59.40
2023-05-24T05:35:09.336Z,58.40
2023-05-24T05:36:03.759Z,58.40
2023-05-24T05:37:06.886Z,58.90
2023-05-24T05:38:04.475Z,59.00
2023-05-24T05:39:06.760Z,59.10
2023-05-24T05:41:06.285Z,58.20
2023-05-24T05:42:03.748Z,58.30
2023-05-24T05:43:04.394Z,59.90
2023-05-24T05:44:03.902Z,58.50
2023-05-24T05:45:06.977Z,58.70
2023-05-24T05:47:06.737Z,57.00
2023-05-24T05:48:09.417Z,57.10
2023-05-24T05:49:03.913Z,56.90
2023-05-24T05:50:03.486Z,56.40
2023-05-24T05:51:06.657Z,57.10
2023-05-24T05:53:06.151Z,56.20
2023-05-24T05:55:04.156Z,55.20
2023-05-24T05:56:03.693Z,55.20
2023-05-24T05:57:04.323Z,55.30
2023-05-24T05:58:06.508Z,54.50
2023-05-24T05:59:06.570Z,54.60
2023-05-24T06:01:03.973Z,54.70
2023-05-24T06:02:03.577Z,54.60
2023-05-24T06:03:04.346Z,54.20
2023-05-24T06:04:04.072Z,53.80
2023-05-24T06:05:03.891Z,54.70
2023-05-24T06:06:03.592Z,54.60
2023-05-24T06:07:04.281Z,54.70
2023-05-24T06:08:11.496Z,56.30
2023-05-24T06:10:04.044Z,55.00
2023-05-24T06:11:03.550Z,55.20
2023-05-24T06:12:06.790Z,54.50
2023-05-24T06:13:04.275Z,54.50
2023-05-24T06:14:06.420Z,53.60
2023-05-24T06:15:03.854Z,53.30
2023-05-24T06:16:04.558Z,54.50
2023-05-24T06:17:04.114Z,54.70
2023-05-24T06:18:06.379Z,55.00
2023-05-24T06:19:06.875Z,54.30
2023-05-24T06:21:06.440Z,54.20
2023-05-24T06:23:04.341Z,54.50
2023-05-24T06:24:06.509Z,54.60
2023-05-24T06:26:04.426Z,54.10
2023-05-24T06:27:09.073Z,54.70
2023-05-24T06:29:04.150Z,55.60
2023-05-24T06:31:06.194Z,55.50
2023-05-24T06:32:03.654Z,55.10
2023-05-24T06:33:04.346Z,55.20
2023-05-24T06:34:05.216Z,54.40
2023-05-24T06:35:06.499Z,54.20
2023-05-24T06:36:04.006Z,54.10
2023-05-24T06:37:03.591Z,54.80
2023-05-24T06:38:06.721Z,52.70
2023-05-24T06:39:04.283Z,52.50
2023-05-24T06:40:04.113Z,52.30
2023-05-24T06:41:06.664Z,52.10
2023-05-24T06:42:04.159Z,51.70
2023-05-24T06:43:03.775Z,51.90
2023-05-24T06:44:04.410Z,52.60
2023-05-24T06:45:04.084Z,53.50
2023-05-24T06:46:06.181Z,51.90
2023-05-24T06:48:07.003Z,52.20
2023-05-24T06:49:03.662Z,52.10
2023-05-24T06:50:04.352Z,52.10
2023-05-24T06:51:06.493Z,52.70
2023-05-24T06:52:04.107Z,52.60
2023-05-24T06:53:03.745Z,52.90
2023-05-24T06:54:06.861Z,53.10
2023-05-24T06:56:06.566Z,53.30
2023-05-24T06:57:06.491Z,52.40
2023-05-24T06:58:06.463Z,52.50
2023-05-24T06:59:03.960Z,52.30
2023-05-24T07:01:06.743Z,49.30
2023-05-24T07:02:09.220Z,50.00
2023-05-24T07:03:08.759Z,49.60
2023-05-24T07:05:06.892Z,50.70
2023-05-24T07:07:04.278Z,50.80
2023-05-24T07:08:06.455Z,50.10
2023-05-24T07:09:06.333Z,52.50
2023-05-24T07:10:06.357Z,50.10
2023-05-24T07:11:06.398Z,49.70
2023-05-24T07:12:09.452Z,49.90
2023-05-24T07:13:03.976Z,49.80
2023-05-24T07:14:03.545Z,49.80
2023-05-24T07:15:04.062Z,51.10
2023-05-24T07:16:06.132Z,50.20
2023-05-24T07:17:06.472Z,49.00
2023-05-24T07:19:05.464Z,49.10
2023-05-24T07:21:09.456Z,50.10
2023-05-24T07:22:09.051Z,49.00
2023-05-24T07:24:04.344Z,49.40
2023-05-24T07:25:06.528Z,48.10
2023-05-24T07:26:06.482Z,49.70
2023-05-24T07:28:03.490Z,48.40
2023-05-24T07:29:04.426Z,48.60
2023-05-24T07:30:03.984Z,48.70
2023-05-24T07:32:04.224Z,46.40
2023-05-24T07:33:06.582Z,46.50
2023-05-24T07:34:06.642Z,45.60
2023-05-24T07:35:04.180Z,45.70
2023-05-24T07:36:03.715Z,47.10
2023-05-24T07:37:04.325Z,46.80
2023-05-24T07:38:03.922Z,45.60
2023-05-24T07:39:03.627Z,46.60
2023-05-24T07:40:04.288Z,46.30
2023-05-24T07:41:08.871Z,47.20
2023-05-24T07:42:04.333Z,47.20
2023-05-24T07:43:04.765Z,47.30
2023-05-24T07:44:04.315Z,46.40
2023-05-24T07:45:03.905Z,47.20
2023-05-24T07:47:04.231Z,46.10
2023-05-24T07:48:03.844Z,46.40
2023-05-24T07:49:04.523Z,46.40
2023-05-24T07:50:06.671Z,45.60
2023-05-24T07:52:06.149Z,45.20
2023-05-24T07:54:06.914Z,45.00
2023-05-24T07:55:04.353Z,44.90
2023-05-24T07:57:09.831Z,45.30
2023-05-24T07:58:04.271Z,45.20
2023-05-24T07:59:06.364Z,45.40
2023-05-24T08:00:06.395Z,45.10
2023-05-24T08:02:03.672Z,46.10
2023-05-24T08:03:04.331Z,46.20
2023-05-24T08:04:04.386Z,46.10
2023-05-24T08:05:03.977Z,43.30
2023-05-24T08:06:08.572Z,41.60
2023-05-24T08:09:04.326Z,42.80
2023-05-24T08:10:03.571Z,43.50
2023-05-24T08:11:04.224Z,43.40
2023-05-24T08:12:06.254Z,44.70
2023-05-24T08:13:06.431Z,43.60
2023-05-24T08:16:06.169Z,47.40
2023-05-24T08:17:03.749Z,47.20
2023-05-24T08:18:04.369Z,45.50
2023-05-24T08:19:04.064Z,46.50
2023-05-24T08:21:03.543Z,46.70
2023-05-24T08:22:06.767Z,47.00
2023-05-24T08:23:06.780Z,45.50
2023-05-24T08:24:09.259Z,45.10
2023-05-24T08:25:04.014Z,44.60
2023-05-24T08:26:03.706Z,43.20
2023-05-24T08:27:09.299Z,46.20
2023-05-24T08:28:03.855Z,48.70
2023-05-24T08:29:04.396Z,44.50
2023-05-24T08:30:11.705Z,45.30
2023-05-24T08:32:04.638Z,44.10
2023-05-24T08:33:03.483Z,45.30
2023-05-24T08:34:04.173Z,44.20
2023-05-24T08:35:20.649Z,44.00
2023-05-24T08:37:06.084Z,45.00
2023-05-24T08:38:03.495Z,43.80
2023-05-24T08:39:06.589Z,42.50
2023-05-24T08:41:03.581Z,43.30
2023-05-24T08:42:10.700Z,40.00
2023-05-24T08:43:04.422Z,40.70
2023-05-24T08:44:04.006Z,40.50
2023-05-24T08:45:03.580Z,41.50
2023-05-24T08:46:04.405Z,41.40
2023-05-24T08:47:06.559Z,40.20
2023-05-24T08:49:04.174Z,41.90
2023-05-24T08:50:06.340Z,41.30
2023-05-24T08:52:04.403Z,42.70
2023-05-24T08:55:06.749Z,45.10
2023-05-24T08:57:09.147Z,43.20
2023-05-24T08:58:06.137Z,41.00
2023-05-24T08:59:06.062Z,39.40
2023-05-24T09:00:03.537Z,39.50
2023-05-24T09:01:04.323Z,39.70
2023-05-24T09:02:04.340Z,40.00
2023-05-24T09:03:06.661Z,39.30
2023-05-24T09:04:06.936Z,39.70
2023-05-24T09:05:03.512Z,39.00
2023-05-24T09:06:06.694Z,38.60
2023-05-24T09:07:06.686Z,39.20
2023-05-24T09:09:03.781Z,38.80
2023-05-24T09:10:07.018Z,39.80
2023-05-24T09:12:06.606Z,39.50
2023-05-24T09:15:04.468Z,38.40
2023-05-24T09:16:04.114Z,38.70
2023-05-24T09:17:03.767Z,38.10
2023-05-24T09:18:04.411Z,38.30
2023-05-24T09:19:03.969Z,37.20
2023-05-24T09:20:03.630Z,38.00
2023-05-24T09:21:04.340Z,39.00
2023-05-24T09:22:03.964Z,39.60
2023-05-24T09:23:03.527Z,40.00
2023-05-24T09:24:04.083Z,39.60
2023-05-24T09:25:03.610Z,39.00
2023-05-24T09:26:09.287Z,37.90
2023-05-24T09:27:06.257Z,37.90
2023-05-24T09:29:09.318Z,38.50
2023-05-24T09:31:08.375Z,39.60
2023-05-24T09:32:04.129Z,37.50
2023-05-24T09:33:03.830Z,38.60
2023-05-24T09:34:04.518Z,36.60
2023-05-24T09:37:04.496Z,36.90
2023-05-24T09:38:03.967Z,38.20
2023-05-24T09:39:03.549Z,37.80
2023-05-24T09:40:06.769Z,37.90
2023-05-24T09:41:06.918Z,37.50
2023-05-24T09:42:06.918Z,37.40
2023-05-24T09:43:04.436Z,37.30
2023-05-24T09:44:03.961Z,37.20
2023-05-24T09:45:08.674Z,37.50
2023-05-24T09:47:06.954Z,37.90
2023-05-24T09:48:03.468Z,37.70
2023-05-24T09:49:06.553Z,38.20
2023-05-24T09:50:04.094Z,38.20
2023-05-24T09:51:06.688Z,38.10
2023-05-24T09:52:04.296Z,38.00
2023-05-24T09:54:04.379Z,38.90
2023-05-24T09:55:03.444Z,39.20
2023-05-24T09:56:04.130Z,39.40
2023-05-24T09:57:05.403Z,40.20
2023-05-24T09:58:06.700Z,39.90
2023-05-24T09:59:06.694Z,38.30
2023-05-24T10:00:06.697Z,38.30
2023-05-24T10:01:06.910Z,38.90
2023-05-24T10:03:07.005Z,39.20
2023-05-24T10:04:05.554Z,39.40
2023-05-24T10:05:06.277Z,38.60
2023-05-24T10:07:06.943Z,38.60
2023-05-24T10:08:04.416Z,38.60
2023-05-24T10:09:06.576Z,39.70
2023-05-24T10:10:07.831Z,39.30
2023-05-24T10:11:06.247Z,39.30
2023-05-24T10:12:03.680Z,39.00
2023-05-24T10:13:04.418Z,39.70
2023-05-24T10:14:06.754Z,39.00
2023-05-24T10:15:09.348Z,36.60
2023-05-24T10:17:04.017Z,37.30
2023-05-24T10:18:06.414Z,37.40
2023-05-24T10:19:09.096Z,37.70
2023-05-24T10:21:07.161Z,37.90
2023-05-24T10:23:04.330Z,36.90
2023-05-24T10:24:04.092Z,36.60
2023-05-24T10:25:06.540Z,36.90
2023-05-24T10:26:06.625Z,37.50
2023-05-24T10:27:06.735Z,38.10
2023-05-24T10:30:08.676Z,37.90
2023-05-24T10:31:11.283Z,38.50
2023-05-24T10:34:08.983Z,36.50
2023-05-24T10:36:07.248Z,37.40
2023-05-24T10:37:06.822Z,38.30
2023-05-24T10:38:04.385Z,38.00
2023-05-24T10:40:06.148Z,38.00
2023-05-24T10:42:10.032Z,36.70
2023-05-24T10:43:06.145Z,36.30
2023-05-24T10:44:09.101Z,36.40
2023-05-24T10:46:06.782Z,37.30
2023-05-24T10:47:04.425Z,37.70
2023-05-24T10:49:04.087Z,37.20
2023-05-24T10:50:06.264Z,38.00
2023-05-24T10:51:06.277Z,38.90
2023-05-24T10:52:06.301Z,39.30
2023-05-24T10:53:03.736Z,39.00
2023-05-24T10:54:09.227Z,39.60
2023-05-24T10:56:06.713Z,40.10
2023-05-24T10:58:03.853Z,39.70
2023-05-24T10:59:06.150Z,38.60
2023-05-24T11:01:04.016Z,39.20
2023-05-24T11:03:03.624Z,38.30
2023-05-24T11:04:04.285Z,37.70
2023-05-24T11:05:06.473Z,37.20
2023-05-24T11:07:03.610Z,37.30
2023-05-24T11:08:04.236Z,37.30
2023-05-24T11:09:06.404Z,37.20
2023-05-24T11:10:06.418Z,38.00
2023-05-24T11:11:26.012Z,38.00
2023-05-24T11:13:06.908Z,36.80
2023-05-24T11:14:04.369Z,36.00
2023-05-24T11:15:06.473Z,38.00
2023-05-24T11:16:06.431Z,37.90
2023-05-24T11:17:06.456Z,37.90
2023-05-24T11:18:03.997Z,37.80
2023-05-24T11:19:03.681Z,37.80
2023-05-24T11:20:04.098Z,37.80
2023-05-24T11:21:06.171Z,36.60
2023-05-24T11:23:04.001Z,34.70
2023-05-24T11:24:06.174Z,37.60
2023-05-24T11:25:06.094Z,38.20
2023-05-24T11:26:06.156Z,39.10
2023-05-24T11:27:03.658Z,38.90
2023-05-24T11:28:04.283Z,39.00
2023-05-24T11:29:05.607Z,39.50
2023-05-24T11:31:04.009Z,38.10
2023-05-24T11:32:06.539Z,38.10
2023-05-24T11:34:03.871Z,36.90
2023-05-24T11:35:04.456Z,38.00
2023-05-24T11:36:06.595Z,37.70
2023-05-24T11:38:06.195Z,37.10
2023-05-24T11:40:06.844Z,37.40
2023-05-24T11:41:06.907Z,37.40
2023-05-24T11:42:04.414Z,37.10
2023-05-24T11:43:03.961Z,34.00
2023-05-24T11:44:08.640Z,35.20
2023-05-24T11:46:04.099Z,36.30
2023-05-24T11:47:03.858Z,37.60
2023-05-24T11:48:11.344Z,37.60
2023-05-24T11:50:06.438Z,37.70
2023-05-24T11:51:11.640Z,37.90
2023-05-24T11:53:08.587Z,39.00
2023-05-24T11:55:06.314Z,38.60
2023-05-24T11:56:06.261Z,39.90
2023-05-24T11:57:03.806Z,39.70
2023-05-24T11:58:06.929Z,40.90
2023-05-24T11:59:04.371Z,40.60
2023-05-24T12:00:06.099Z,40.30
2023-05-24T12:01:03.564Z,40.00
2023-05-24T12:02:04.516Z,39.50
2023-05-24T12:03:09.121Z,38.40
2023-05-24T12:04:03.846Z,38.50
2023-05-24T12:05:04.373Z,38.90
2023-05-24T12:06:06.202Z,39.00
2023-05-24T12:07:03.815Z,38.80
2023-05-24T12:08:04.448Z,38.80
2023-05-24T12:11:03.566Z,37.60
2023-05-24T12:12:09.133Z,37.40
2023-05-24T12:13:08.943Z,37.30
2023-05-24T12:17:06.257Z,37.50
2023-05-24T12:19:24.587Z,36.50
2023-05-24T12:20:07.029Z,35.50
2023-05-24T12:22:04.474Z,35.20
2023-05-24T12:24:03.546Z,34.80
2023-05-24T12:25:04.102Z,35.40
2023-05-24T12:26:06.169Z,36.50
2023-05-24T12:28:06.952Z,35.70
2023-05-24T12:30:06.661Z,35.70
2023-05-24T12:32:09.046Z,36.80
2023-05-24T12:34:06.876Z,37.70
2023-05-24T12:35:06.897Z,35.10
2023-05-24T12:37:06.475Z,35.90
2023-05-24T12:39:03.611Z,37.70
2023-05-24T12:40:04.126Z,38.30
2023-05-24T12:41:12.700Z,37.60
2023-05-24T12:42:03.962Z,36.80
2023-05-24T12:43:03.677Z,36.90
2023-05-24T12:44:04.332Z,37.30
2023-05-24T12:45:03.899Z,38.30
2023-05-24T12:46:06.948Z,36.90
2023-05-24T12:48:04.164Z,35.80
2023-05-24T12:49:03.791Z,36.20
2023-05-24T12:50:04.345Z,35.50
2023-05-24T12:51:03.913Z,35.50
2023-05-24T12:53:04.242Z,36.30
2023-05-24T12:54:03.599Z,36.10
2023-05-24T12:55:04.159Z,35.50
2023-05-24T12:56:03.831Z,36.10
2023-05-24T12:57:06.982Z,36.90
2023-05-24T13:00:03.596Z,35.70
2023-05-24T13:01:06.820Z,39.80
2023-05-24T13:02:04.295Z,40.10
2023-05-24T13:03:03.883Z,39.70
2023-05-24T13:04:06.936Z,41.30
2023-05-24T13:05:06.913Z,40.80
2023-05-24T13:07:04.152Z,38.00
2023-05-24T13:09:03.996Z,35.80
2023-05-24T13:10:06.823Z,34.20
2023-05-24T13:11:06.816Z,36.20
2023-05-24T13:14:09.642Z,37.20
2023-05-24T13:15:06.924Z,36.80
2023-05-24T13:16:04.396Z,35.50
2023-05-24T13:17:04.113Z,36.40
2023-05-24T13:18:03.815Z,34.60
2023-05-24T13:19:04.384Z,35.70
2023-05-24T13:22:04.140Z,36.80
2023-05-24T13:25:04.308Z,33.80
2023-05-24T13:26:06.442Z,34.70
2023-05-24T13:28:06.010Z,34.80
2023-05-24T13:31:09.209Z,32.30
2023-05-24T13:32:03.793Z,33.80
2023-05-24T13:33:04.418Z,33.40
2023-05-24T13:34:06.652Z,31.00
2023-05-24T13:35:08.448Z,30.20
2023-05-24T13:36:07.057Z,31.90
2023-05-24T13:37:06.111Z,33.50
2023-05-24T13:38:11.087Z,33.10
2023-05-24T13:40:06.861Z,30.80
2023-05-24T13:41:06.954Z,30.90
2023-05-24T13:42:06.976Z,30.80
2023-05-24T13:43:04.496Z,30.80
2023-05-24T13:44:06.496Z,31.70
2023-05-24T13:46:03.545Z,33.70
2023-05-24T13:47:04.368Z,33.10
2023-05-24T13:47:41.708Z,30.40
2023-05-24T13:48:04.545Z,31.20
2023-05-24T13:49:04.129Z,31.50
2023-05-24T13:50:06.295Z,31.80
2023-05-24T13:51:06.278Z,32.40
2023-05-24T13:52:03.821Z,32.90
2023-05-24T13:53:04.552Z,33.30
2023-05-24T13:54:04.122Z,33.80
2023-05-24T13:55:03.672Z,32.30
2023-05-24T13:56:06.848Z,32.70
2023-05-24T13:57:04.299Z,32.50
2023-05-24T13:58:03.895Z,32.80
2023-05-24T13:59:07.029Z,32.40
2023-05-24T14:00:06.092Z,32.90
2023-05-24T14:02:07.104Z,34.10
2023-05-24T14:04:04.487Z,34.50
2023-05-24T14:05:27.749Z,34.60
2023-05-24T14:06:03.498Z,32.40
2023-05-24T14:07:04.113Z,34.20
2023-05-24T14:08:03.829Z,33.40
2023-05-24T14:09:06.012Z,34.40
2023-05-24T14:11:06.720Z,35.20
2023-05-24T14:13:43.068Z,35.40
2023-05-24T14:14:57.584Z,34.60
2023-05-24T14:16:03.682Z,36.00
2023-05-24T14:17:06.997Z,35.20
2023-05-24T14:19:04.163Z,35.70
2023-05-24T14:20:06.365Z,36.30
2023-05-24T14:21:08.878Z,36.20
2023-05-24T14:23:04.312Z,34.10
2023-05-24T14:24:06.439Z,36.00
2023-05-24T14:25:06.375Z,35.30
2023-05-24T14:27:06.872Z,32.90
2023-05-24T14:28:04.387Z,33.10
2023-05-24T14:29:03.976Z,32.70
2023-05-24T14:31:06.772Z,34.70
2023-05-24T14:33:03.956Z,34.30
2023-05-24T14:34:03.580Z,34.40
2023-05-24T14:35:09.270Z,33.40
2023-05-24T14:36:03.680Z,33.50
2023-05-24T14:37:09.381Z,33.10
2023-05-24T14:38:03.898Z,31.70
2023-05-24T14:39:03.594Z,32.80
2023-05-24T14:40:04.334Z,33.10
2023-05-24T14:41:06.453Z,33.60
2023-05-24T14:43:08.576Z,34.90
2023-05-24T14:44:03.937Z,32.20
2023-05-24T14:45:03.550Z,34.50
2023-05-24T14:46:04.250Z,35.70
2023-05-24T14:47:03.774Z,35.30
2023-05-24T14:48:04.651Z,34.20
2023-05-24T14:49:04.154Z,31.30
2023-05-24T14:50:03.643Z,32.50
2023-05-24T14:51:04.286Z,35.30
2023-05-24T14:52:03.858Z,34.80
2023-05-24T14:53:04.399Z,35.90
2023-05-24T14:54:06.467Z,34.20
2023-05-24T14:55:06.428Z,34.00
2023-05-24T14:57:03.465Z,34.30
2023-05-24T14:58:03.978Z,34.00
2023-05-24T15:00:06.799Z,34.10
2023-05-24T15:01:06.895Z,33.80
2023-05-24T15:02:07.149Z,34.40
2023-05-24T15:03:03.786Z,32.70
2023-05-24T15:04:03.632Z,33.50
2023-05-24T15:05:04.274Z,34.50
2023-05-24T15:06:03.805Z,34.70
2023-05-24T15:07:06.936Z,33.30
2023-05-24T15:09:03.894Z,33.50
2023-05-24T15:10:06.160Z,33.90
2023-05-24T15:12:06.740Z,32.50
2023-05-24T15:14:03.924Z,34.40
2023-05-24T15:15:06.178Z,33.90
2023-05-24T15:16:03.661Z,34.10
2023-05-24T15:17:04.472Z,34.60
2023-05-24T15:18:06.668Z,34.60
2023-05-24T15:19:04.134Z,34.40
2023-05-24T15:20:03.769Z,35.20
2023-05-24T15:21:06.952Z,33.50
2023-05-24T15:23:03.980Z,34.40
2023-05-24T15:24:03.546Z,35.20
2023-05-24T15:25:06.669Z,35.90
2023-05-24T15:27:03.594Z,33.30
2023-05-24T15:28:04.156Z,35.10
2023-05-24T15:29:03.924Z,35.90
2023-05-24T15:30:06.057Z,35.50
2023-05-24T15:31:03.569Z,35.30
2023-05-24T15:32:04.249Z,36.20
2023-05-24T15:33:03.937Z,36.20
2023-05-24T15:34:06.191Z,34.30
2023-05-24T15:35:06.229Z,34.00
2023-05-24T15:37:04.359Z,34.40
2023-05-24T15:39:03.571Z,35.20
2023-05-24T15:40:04.100Z,35.70
2023-05-24T15:41:03.805Z,35.40
2023-05-24T15:42:04.415Z,33.50
2023-05-24T15:43:04.013Z,34.60
2023-05-24T15:44:03.503Z,34.60
2023-05-24T15:45:04.123Z,34.70
2023-05-24T15:46:06.288Z,34.50
2023-05-24T15:48:04.460Z,36.00
2023-05-24T15:49:04.025Z,37.00
2023-05-24T15:52:04.094Z,36.60
2023-05-24T15:54:06.852Z,35.90
2023-05-24T15:56:03.994Z,35.50
2023-05-24T15:57:03.531Z,35.70
2023-05-24T15:58:09.183Z,36.50
2023-05-24T15:59:03.677Z,36.30
2023-05-24T16:00:04.220Z,35.70
2023-05-24T16:01:03.729Z,35.80
2023-05-24T16:02:04.412Z,36.50
2023-05-24T16:03:06.700Z,36.20
2023-05-24T16:04:06.946Z,35.00
2023-05-24T16:05:04.416Z,35.50
2023-05-24T16:06:06.513Z,36.00
2023-05-24T16:08:06.062Z,36.40
2023-05-24T16:10:04.167Z,36.80
2023-05-24T16:11:08.852Z,35.80
2023-05-24T16:14:04.364Z,36.80
2023-05-24T16:15:03.925Z,36.60
2023-05-24T16:16:08.751Z,34.70
2023-05-24T16:19:03.652Z,35.30
2023-05-24T16:20:04.265Z,34.90